Forside
METAR-TAF:

METAR-TAF

Lufthavne :

Jeddah International Airport

Jeddah, Saudi-Arabien

Breddekreds: 21-42N, længdekreds: 039-11E, højde: 15 m

Aktuelle vejr

Denne rapport blev lavet for 52 minutter siden, kl. 12:00 UTC
Vind 12 kt fra sydsydvest
Temperatur 33°C
Fugtighed 56%
Tryk 1007 hPa
Sigt 10 km eller mere
Nogle få skyer i en højde af 4000 ft

METAR: OEJN 171200Z 21012KT 9999 FEW040 33/23 Q1007 NOSIG

Tid: 15:52 (12:52 UTC)

Vejrudsigter

Denne rapport blev lavet for 1 time og 52 minutter siden, kl. 11:00 UTC
Foreløbig gælder fra 17 på 12 UTC til 18 på 18 UTC
Vind 8 kt fra vestnordvest med vindstød på up til 18 kt
Sigt: 7000 m
Nogle få skyer i en højde af 4000 ft
ændring
fra 17 på 18 UTC til 17 på 20 UTC
Vind 10 kt fra nordnordøst
Midlertidig
fra 17 på 12 UTC til 17 på 20 UTC
Sigt: 4000 m
Nogle få skyer i en højde af 3500 ft, Cumulonimbus.
Spredte skyer i en højde af 4000 ft
Udbredt støv, blæsende støv

TAF: OEJN 171100Z 1712/1818 29008G18KT 7000 FEW040 BECMG 1718/1720 03010KT TEMPO 1712/1720 4000 DU BLDU FEW035CB SCT040

Vejrobservationer og prognoser fra mere end 4000 lufthavne (METAR og TAF).

De gule og røde prikker repræsenterer de meteorologiske stationer.

Flyt musen over at se navnet på stationen.

Så klik over at se vejr observationer og prognoser.

At skifte det kort: Klik på de grønne knapper med et sort kors for at zoome ind; på den grønne knap med en bindestreg for at zoome ud; eller på de grønne pile for tilstødende kort.


METAR-TAF: